Time;durP1;ratioP1;P1;durP2;ratioP2;P2;SDS_P1;SDS_P2;PMS_P1;PMS_P2;Temp;Humidity;BMP_temperature;BMP_pressure;BME280_temperature;BME280_humidity;BME280_pressure;Samples;Min_cycle;Max_cycle;Signal;HPM_P1;HPM_P2
2022/05/19 00:00:35;;;;;;;;;;;16.60;92.20;;;;;;5077055;28;21413;-64
2022/05/19 00:03:01;;;;;;;;;;;16.60;92.60;;;;;;5088133;28;20007;-64
2022/05/19 00:05:27;;;;;;;;;;;16.70;92.60;;;;;;5080116;28;20420;-64
2022/05/19 00:07:52;;;;;;;;;;;16.60;92.90;;;;;;5078564;28;19955;-64
2022/05/19 00:10:18;;;;;;;;;;;16.60;92.50;;;;;;5071105;28;20314;-64
2022/05/19 00:12:44;;;;;;;;;;;16.60;92.60;;;;;;5079587;28;20020;-64
2022/05/19 00:15:11;;;;;;;;;;;16.50;92.20;;;;;;5078868;28;19920;-64
2022/05/19 00:17:37;;;;;;;;;;;16.60;93.10;;;;;;5085738;28;19926;-64
2022/05/19 00:20:03;;;;;;;;;;;16.70;92.90;;;;;;5082858;28;20009;-64
2022/05/19 00:22:28;;;;;;;;;;;16.80;92.70;;;;;;5080651;28;19929;-64
2022/05/19 00:24:54;;;;;;;;;;;16.70;92.40;;;;;;5084578;28;19932;-64
2022/05/19 00:27:19;;;;;;;;;;;16.60;91.90;;;;;;5090444;28;19920;-64
2022/05/19 00:29:45;;;;;;;;;;;16.60;91.90;;;;;;5078800;28;19928;-64
2022/05/19 00:32:10;;;;;;;;;;;16.60;92.60;;;;;;5075705;28;20391;-64
2022/05/19 00:34:36;;;;;;;;;;;16.60;92.80;;;;;;5073795;28;20283;-64
2022/05/19 00:37:02;;;;;;;;;;;16.60;92.00;;;;;;5081398;28;20005;-64
2022/05/19 00:39:28;;;;;;;;;;;16.50;92.20;;;;;;5077917;28;20341;-64
2022/05/19 00:42:43;;;;;;;;;;;16.50;92.60;;;;;;5077620;28;19977;-64
2022/05/19 00:44:40;;;;;;;;;;;16.50;92.10;;;;;;5083758;28;19920;-64
2022/05/19 00:47:07;;;;;;;;;;;16.40;92.30;;;;;;5083019;28;19946;-64
2022/05/19 00:49:38;;;;;;;;;;;16.40;92.70;;;;;;5078641;28;19955;-64
2022/05/19 00:52:05;;;;;;;;;;;16.30;92.20;;;;;;5076954;28;20420;-64
2022/05/19 00:54:35;;;;;;;;;;;16.10;94.30;;;;;;5076753;28;19960;-64
2022/05/19 00:57:03;;;;;;;;;;;16.10;94.00;;;;;;5076672;28;19920;-64
2022/05/19 00:59:36;;;;;;;;;;;15.90;93.10;;;;;;5079969;28;19920;-64
2022/05/19 01:02:04;;;;;;;;;;;15.90;93.70;;;;;;5070035;28;19927;-64
2022/05/19 01:04:35;;;;;;;;;;;15.80;93.90;;;;;;5076612;28;20423;-64
2022/05/19 01:07:04;;;;;;;;;;;15.70;94.00;;;;;;5073557;28;20011;-64
2022/05/19 01:09:34;;;;;;;;;;;15.60;94.30;;;;;;5082715;28;19928;-64
2022/05/19 01:12:03;;;;;;;;;;;15.50;94.60;;;;;;5070697;28;20379;-64
2022/05/19 01:14:29;;;;;;;;;;;15.50;94.30;;;;;;5070210;28;20031;-64
2022/05/19 01:16:54;;;;;;;;;;;15.50;94.70;;;;;;5077628;28;19998;-64
2022/05/19 01:19:27;;;;;;;;;;;15.50;95.00;;;;;;5080285;28;19929;-64
2022/05/19 01:21:53;;;;;;;;;;;15.50;94.90;;;;;;5076660;28;20003;-64
2022/05/19 01:24:29;;;;;;;;;;;15.50;96.50;;;;;;5081259;28;19927;-64
2022/05/19 01:26:55;;;;;;;;;;;15.40;95.30;;;;;;5083640;28;19928;-64
2022/05/19 01:29:25;;;;;;;;;;;15.50;95.90;;;;;;5086768;28;20019;-64
2022/05/19 01:31:52;;;;;;;;;;;15.50;96.00;;;;;;5070878;28;20288;-64
2022/05/19 01:34:19;;;;;;;;;;;15.50;95.90;;;;;;5071964;28;20429;-64
2022/05/19 01:36:44;;;;;;;;;;;15.60;95.70;;;;;;5077617;28;19928;-64
2022/05/19 01:39:12;;;;;;;;;;;15.60;96.00;;;;;;5075630;28;20382;-64
2022/05/19 01:41:37;;;;;;;;;;;15.60;95.60;;;;;;5081280;28;19965;-64
2022/05/19 01:44:18;;;;;;;;;;;15.60;96.00;;;;;;5083620;28;19924;-64
2022/05/19 01:46:47;;;;;;;;;;;15.60;95.70;;;;;;5072185;28;19959;-64
2022/05/19 01:49:17;;;;;;;;;;;15.60;95.40;;;;;;5082451;28;19970;-64
2022/05/19 01:51:58;;;;;;;;;;;15.60;95.70;;;;;;5082074;28;19931;-64
2022/05/19 01:54:27;;;;;;;;;;;15.50;95.90;;;;;;5088291;28;19931;-64
2022/05/19 01:56:55;;;;;;;;;;;15.50;96.80;;;;;;5075022;28;19928;-64
2022/05/19 01:59:24;;;;;;;;;;;15.50;96.10;;;;;;5085098;28;19927;-64
2022/05/19 02:02:08;;;;;;;;;;;15.40;95.70;;;;;;5083908;28;19924;-64
2022/05/19 02:04:38;;;;;;;;;;;15.40;96.30;;;;;;5086822;28;19920;-64
2022/05/19 02:07:06;;;;;;;;;;;15.40;96.10;;;;;;5084979;28;19920;-64
2022/05/19 02:09:34;;;;;;;;;;;15.40;96.10;;;;;;5078003;28;19931;-64
2022/05/19 02:12:01;;;;;;;;;;;15.40;96.40;;;;;;5069412;28;20674;-64
2022/05/19 02:14:31;;;;;;;;;;;15.30;96.40;;;;;;5086693;28;20379;-64
2022/05/19 02:16:58;;;;;;;;;;;15.30;96.50;;;;;;5078356;28;19988;-64
2022/05/19 02:19:26;;;;;;;;;;;15.30;96.30;;;;;;5079612;28;19978;-64
2022/05/19 02:21:52;;;;;;;;;;;15.20;95.90;;;;;;5084691;28;19920;-64
2022/05/19 02:24:19;;;;;;;;;;;15.20;96.10;;;;;;5080660;28;19924;-64
2022/05/19 02:26:45;;;;;;;;;;;15.20;96.50;;;;;;5076079;28;19924;-64
2022/05/19 02:29:13;;;;;;;;;;;15.20;96.40;;;;;;5088253;28;19931;-64
2022/05/19 02:31:45;;;;;;;;;;;15.20;97.00;;;;;;5084119;28;20376;-63
2022/05/19 02:34:11;;;;;;;;;;;15.20;97.50;;;;;;5082332;28;20249;-64
2022/05/19 02:36:37;;;;;;;;;;;15.20;96.70;;;;;;5076371;28;19927;-64
2022/05/19 02:39:02;;;;;;;;;;;15.20;96.50;;;;;;5087094;28;20583;-63
2022/05/19 02:41:28;;;;;;;;;;;15.20;96.70;;;;;;5081142;28;19944;-64
2022/05/19 02:43:53;;;;;;;;;;;15.10;96.50;;;;;;5080018;28;19924;-64
2022/05/19 02:46:19;;;;;;;;;;;15.00;96.60;;;;;;5082760;28;19928;-64
2022/05/19 02:48:44;;;;;;;;;;;14.90;96.70;;;;;;5084592;28;19928;-64
2022/05/19 02:51:10;;;;;;;;;;;14.90;96.20;;;;;;5087059;28;19941;-64
2022/05/19 02:53:35;;;;;;;;;;;14.90;96.80;;;;;;5077335;28;20053;-64
2022/05/19 02:56:01;;;;;;;;;;;14.80;96.80;;;;;;5076985;28;19928;-64
2022/05/19 02:58:26;;;;;;;;;;;14.80;96.80;;;;;;5083387;28;19927;-64
2022/05/19 03:00:52;;;;;;;;;;;14.80;97.40;;;;;;5082278;28;19934;-64
2022/05/19 03:03:18;;;;;;;;;;;14.70;97.00;;;;;;5082607;28;19921;-63
2022/05/19 03:05:44;;;;;;;;;;;14.70;96.90;;;;;;5085950;28;20501;-63
2022/05/19 03:08:10;;;;;;;;;;;14.70;97.70;;;;;;5073545;28;19920;-63
2022/05/19 03:10:36;;;;;;;;;;;14.70;98.20;;;;;;5077080;28;20651;-63
2022/05/19 03:13:02;;;;;;;;;;;14.70;98.20;;;;;;5077743;28;20002;-63
2022/05/19 03:15:28;;;;;;;;;;;14.80;98.30;;;;;;5079164;28;19927;-63
2022/05/19 03:17:53;;;;;;;;;;;14.80;98.50;;;;;;5075571;28;19932;-64
2022/05/19 03:20:19;;;;;;;;;;;14.80;98.30;;;;;;5086069;28;19936;-64
2022/05/19 03:22:44;;;;;;;;;;;14.80;98.80;;;;;;5087320;28;19967;-63
2022/05/19 03:25:10;;;;;;;;;;;14.80;98.90;;;;;;5081248;28;19924;-63
2022/05/19 03:27:36;;;;;;;;;;;14.90;99.50;;;;;;5082765;28;20406;-63
2022/05/19 03:30:02;;;;;;;;;;;14.90;99.80;;;;;;5071110;28;19940;-63
2022/05/19 03:32:28;;;;;;;;;;;14.90;99.60;;;;;;5079976;28;20007;-63
2022/05/19 03:34:53;;;;;;;;;;;15.00;99.80;;;;;;5082109;28;19928;-63
2022/05/19 03:37:18;;;;;;;;;;;15.00;99.60;;;;;;5082143;28;19927;-63
2022/05/19 03:39:44;;;;;;;;;;;15.00;99.00;;;;;;5081662;28;19936;-63
2022/05/19 03:42:10;;;;;;;;;;;15.10;98.90;;;;;;5082389;28;19955;-63
2022/05/19 03:44:36;;;;;;;;;;;15.00;98.60;;;;;;5074151;28;19920;-63
2022/05/19 03:47:02;;;;;;;;;;;15.10;99.30;;;;;;5082358;28;19920;-63
2022/05/19 03:49:27;;;;;;;;;;;15.10;98.80;;;;;;5084888;28;19925;-63
2022/05/19 03:51:53;;;;;;;;;;;15.10;98.70;;;;;;5082440;28;19938;-63
2022/05/19 03:54:18;;;;;;;;;;;15.20;98.90;;;;;;5069934;28;19924;-63
2022/05/19 03:56:44;;;;;;;;;;;15.20;98.70;;;;;;5071306;28;20436;-63
2022/05/19 03:59:09;;;;;;;;;;;15.30;99.30;;;;;;5076182;28;20549;-63
2022/05/19 04:01:35;;;;;;;;;;;15.30;98.70;;;;;;5079008;28;19974;-63
2022/05/19 04:04:00;;;;;;;;;;;15.20;98.90;;;;;;5078299;28;19924;-63
2022/05/19 04:06:26;;;;;;;;;;;15.20;99.10;;;;;;5086014;28;19924;-63
2022/05/19 04:08:51;;;;;;;;;;;15.20;98.70;;;;;;5080052;28;21810;-63
2022/05/19 04:11:17;;;;;;;;;;;15.10;98.80;;;;;;5073549;28;20747;-63
2022/05/19 04:13:43;;;;;;;;;;;15.00;99.10;;;;;;5088647;28;19920;-63
2022/05/19 04:16:09;;;;;;;;;;;15.00;98.60;;;;;;5072871;28;19929;-63
2022/05/19 04:18:34;;;;;;;;;;;15.00;98.70;;;;;;5076202;28;19927;-63
2022/05/19 04:21:00;;;;;;;;;;;15.00;99.10;;;;;;5075112;28;19964;-63
2022/05/19 04:23:25;;;;;;;;;;;14.90;99.10;;;;;;5080038;28;19927;-63
2022/05/19 04:25:51;;;;;;;;;;;14.90;99.30;;;;;;5076986;28;20393;-63
2022/05/19 04:28:17;;;;;;;;;;;14.90;99.40;;;;;;5077466;28;20007;-63
2022/05/19 04:30:42;;;;;;;;;;;14.90;99.60;;;;;;5075216;28;20050;-63
2022/05/19 04:33:08;;;;;;;;;;;15.00;99.40;;;;;;5084707;28;19923;-63
2022/05/19 04:35:34;;;;;;;;;;;15.00;99.60;;;;;;5076848;28;19950;-63
2022/05/19 04:38:04;;;;;;;;;;;15.00;99.60;;;;;;5078673;28;19967;-63
2022/05/19 04:40:29;;;;;;;;;;;15.10;99.90;;;;;;5083014;28;19921;-63
2022/05/19 04:42:55;;;;;;;;;;;15.20;99.90;;;;;;5076440;28;19931;-63
2022/05/19 04:45:20;;;;;;;;;;;15.20;99.70;;;;;;5083000;28;19924;-63
2022/05/19 04:47:47;;;;;;;;;;;15.40;99.70;;;;;;5077865;28;19972;-62
2022/05/19 04:50:13;;;;;;;;;;;15.50;99.90;;;;;;5073088;28;19928;-63
2022/05/19 04:52:39;;;;;;;;;;;15.70;99.90;;;;;;5072180;28;20050;-63
2022/05/19 04:55:05;;;;;;;;;;;15.90;99.90;;;;;;5079611;28;20023;-63
2022/05/19 04:57:31;;;;;;;;;;;16.00;99.80;;;;;;5080183;28;20012;-63
2022/05/19 04:59:56;;;;;;;;;;;16.20;99.80;;;;;;5072930;28;20501;-63
2022/05/19 05:02:22;;;;;;;;;;;16.30;99.10;;;;;;5070445;28;19925;-64
2022/05/19 05:04:47;;;;;;;;;;;16.30;99.10;;;;;;5075419;28;19927;-63
2022/05/19 05:07:13;;;;;;;;;;;16.40;99.00;;;;;;5072026;28;19920;-63
2022/05/19 05:09:39;;;;;;;;;;;16.40;99.90;;;;;;5080982;28;20360;-63
2022/05/19 05:12:04;;;;;;;;;;;16.40;98.60;;;;;;5075240;28;20386;-63
2022/05/19 05:14:30;;;;;;;;;;;16.50;98.80;;;;;;5075572;28;19955;-64
2022/05/19 05:16:55;;;;;;;;;;;16.50;99.90;;;;;;5079092;28;19946;-64
2022/05/19 05:19:22;;;;;;;;;;;16.50;99.40;;;;;;5080357;28;19920;-64
2022/05/19 05:21:49;;;;;;;;;;;16.60;98.70;;;;;;5085920;28;19920;-64
2022/05/19 05:24:14;;;;;;;;;;;16.60;99.00;;;;;;5086444;28;19936;-64
2022/05/19 05:26:40;;;;;;;;;;;16.70;99.00;;;;;;5075784;28;19920;-65
2022/05/19 05:29:05;;;;;;;;;;;16.80;98.50;;;;;;5077545;28;19939;-64
2022/05/19 05:31:31;;;;;;;;;;;16.90;98.00;;;;;;5090884;28;20333;-65
2022/05/19 05:33:56;;;;;;;;;;;17.10;97.60;;;;;;5083803;28;19950;-64
2022/05/19 05:36:22;;;;;;;;;;;17.30;97.00;;;;;;5074844;28;19982;-64
2022/05/19 05:38:47;;;;;;;;;;;17.40;96.70;;;;;;5086551;28;19929;-64
2022/05/19 05:41:16;;;;;;;;;;;17.50;96.20;;;;;;5073132;28;19921;-64
2022/05/19 05:43:41;;;;;;;;;;;17.60;95.30;;;;;;5086331;28;20271;-65
2022/05/19 05:46:09;;;;;;;;;;;17.80;95.20;;;;;;5073637;28;19920;-64
2022/05/19 05:48:36;;;;;;;;;;;17.80;95.10;;;;;;5080661;28;20319;-64
2022/05/19 05:51:03;;;;;;;;;;;17.90;94.50;;;;;;5077890;28;19921;-65
2022/05/19 05:53:29;;;;;;;;;;;18.10;94.30;;;;;;5071815;28;19947;-64
2022/05/19 05:55:54;;;;;;;;;;;18.50;94.70;;;;;;5071694;28;19936;-64
2022/05/19 05:58:20;;;;;;;;;;;18.60;93.40;;;;;;5071770;28;19924;-65
2022/05/19 06:00:45;;;;;;;;;;;18.90;91.90;;;;;;5070008;28;19956;-65
2022/05/19 06:03:11;;;;;;;;;;;19.20;92.20;;;;;;5072220;28;19921;-65
2022/05/19 06:05:36;;;;;;;;;;;19.50;91.10;;;;;;5089179;28;20433;-65
2022/05/19 06:08:02;;;;;;;;;;;19.70;90.60;;;;;;5072484;28;19935;-64
2022/05/19 06:10:27;;;;;;;;;;;20.00;89.00;;;;;;5078478;28;19928;-65
2022/05/19 06:12:53;;;;;;;;;;;20.10;87.40;;;;;;5083992;28;19920;-64
2022/05/19 06:15:18;;;;;;;;;;;20.20;86.30;;;;;;5072973;28;19942;-65
2022/05/19 06:17:44;;;;;;;;;;;20.20;85.40;;;;;;5073678;28;19978;-65
2022/05/19 06:20:12;;;;;;;;;;;20.40;84.90;;;;;;5076003;28;19926;-64
2022/05/19 06:22:38;;;;;;;;;;;20.50;84.20;;;;;;5070430;28;19934;-65
2022/05/19 06:25:04;;;;;;;;;;;20.90;83.90;;;;;;5083408;28;19924;-65
2022/05/19 06:27:30;;;;;;;;;;;21.00;80.30;;;;;;5087394;28;20322;-65
2022/05/19 06:29:55;;;;;;;;;;;21.00;80.70;;;;;;5070998;28;19932;-65
2022/05/19 06:32:21;;;;;;;;;;;21.20;80.90;;;;;;5079850;28;19920;-65
2022/05/19 06:34:46;;;;;;;;;;;21.30;79.10;;;;;;5089277;28;19927;-66
2022/05/19 06:37:12;;;;;;;;;;;21.20;78.40;;;;;;5080755;28;19942;-65
2022/05/19 06:39:37;;;;;;;;;;;21.30;79.00;;;;;;5078791;28;21740;-64
2022/05/19 06:42:03;;;;;;;;;;;21.50;79.50;;;;;;5078506;28;20003;-65
2022/05/19 06:44:38;;;;;;;;;;;21.60;78.90;;;;;;5094318;28;19994;-64
2022/05/19 06:47:10;;;;;;;;;;;21.80;78.40;;;;;;5086161;28;20476;-65
2022/05/19 06:49:35;;;;;;;;;;;22.00;77.20;;;;;;5086715;28;19924;-65
2022/05/19 06:52:01;;;;;;;;;;;22.20;76.10;;;;;;5077500;28;19920;-65
2022/05/19 06:54:26;;;;;;;;;;;22.30;76.30;;;;;;5071694;28;20019;-65
2022/05/19 06:56:52;;;;;;;;;;;22.70;75.30;;;;;;5087493;28;19923;-66
2022/05/19 06:59:17;;;;;;;;;;;23.10;73.30;;;;;;5093378;28;19920;-66
2022/05/19 07:01:45;;;;;;;;;;;23.30;73.80;;;;;;5090418;28;19964;-66
2022/05/19 07:04:10;;;;;;;;;;;23.30;72.10;;;;;;5093884;28;19985;-66
2022/05/19 07:06:36;;;;;;;;;;;23.40;72.50;;;;;;5091247;28;20008;-66
2022/05/19 07:09:01;;;;;;;;;;;23.40;72.50;;;;;;5093199;28;19928;-66
2022/05/19 07:11:27;;;;;;;;;;;23.40;71.40;;;;;;5091218;28;19953;-66
2022/05/19 07:13:57;;;;;;;;;;;23.30;71.30;;;;;;5091366;28;19924;-66
2022/05/19 07:16:23;;;;;;;;;;;23.10;72.30;;;;;;5083719;28;20014;-66
2022/05/19 07:18:49;;;;;;;;;;;22.90;72.40;;;;;;5072306;28;20379;-65
2022/05/19 07:21:16;;;;;;;;;;;22.60;72.90;;;;;;5072633;28;19925;-66
2022/05/19 07:23:41;;;;;;;;;;;22.50;73.70;;;;;;5072131;28;19927;-66
2022/05/19 07:26:07;;;;;;;;;;;22.60;74.10;;;;;;5084574;28;19920;-66
2022/05/19 07:28:33;;;;;;;;;;;22.80;73.40;;;;;;5091475;28;19920;-66
2022/05/19 07:30:59;;;;;;;;;;;23.10;72.80;;;;;;5091587;28;19926;-66
2022/05/19 07:33:28;;;;;;;;;;;23.10;72.40;;;;;;5092376;28;19924;-66
2022/05/19 07:35:54;;;;;;;;;;;23.30;72.00;;;;;;5089223;28;19930;-66
2022/05/19 07:38:19;;;;;;;;;;;23.20;70.20;;;;;;5075597;28;19924;-65
2022/05/19 07:40:45;;;;;;;;;;;23.20;71.20;;;;;;5071820;28;19924;-66
2022/05/19 07:45:55;;;;;;;;;;;23.00;71.60;;;;;;5092175;28;20702;-65
2022/05/19 07:48:21;;;;;;;;;;;22.90;72.10;;;;;;5083710;28;19963;-65
2022/05/19 07:50:46;;;;;;;;;;;22.80;72.60;;;;;;5092388;28;20038;-65
2022/05/19 07:53:11;;;;;;;;;;;22.70;73.00;;;;;;5092508;28;19935;-65
2022/05/19 07:55:37;;;;;;;;;;;22.60;73.50;;;;;;5080356;28;19932;-65
2022/05/19 07:58:03;;;;;;;;;;;22.40;74.00;;;;;;5070834;28;19931;-65
2022/05/19 08:00:29;;;;;;;;;;;22.10;73.50;;;;;;5069523;28;20299;-66
2022/05/19 08:02:55;;;;;;;;;;;21.70;74.60;;;;;;5071635;28;19971;-65
2022/05/19 08:05:20;;;;;;;;;;;21.20;88.90;;;;;;5080014;28;20507;-66
2022/05/19 08:07:46;;;;;;;;;;;20.30;94.30;;;;;;5091378;28;20003;-66
2022/05/19 08:10:20;;;;;;;;;;;19.80;96.80;;;;;;5088318;28;19983;-66
2022/05/19 08:15:36;;;;;;;;;;;19.40;99.10;;;;;;5084726;28;19924;-65
2022/05/19 08:18:07;;;;;;;;;;;19.10;99.20;;;;;;5092659;28;19927;-65
2022/05/19 08:20:36;;;;;;;;;;;19.00;99.90;;;;;;5088449;28;19927;-65
2022/05/19 08:23:03;;;;;;;;;;;19.00;99.90;;;;;;5071796;28;19925;-66
2022/05/19 08:25:28;;;;;;;;;;;18.70;99.90;;;;;;5071351;28;19921;-65
2022/05/19 08:27:55;;;;;;;;;;;18.90;99.90;;;;;;5090096;28;19924;-65
2022/05/19 08:30:21;;;;;;;;;;;18.80;99.90;;;;;;5092745;28;19978;-65
2022/05/19 08:32:46;;;;;;;;;;;18.80;99.90;;;;;;5072564;28;19920;-66
2022/05/19 08:35:12;;;;;;;;;;;18.70;99.90;;;;;;5090818;28;19931;-65
2022/05/19 08:37:37;;;;;;;;;;;18.70;99.90;;;;;;5090076;28;20682;-66
2022/05/19 08:40:03;;;;;;;;;;;18.50;99.90;;;;;;5070568;28;19920;-66
2022/05/19 08:42:32;;;;;;;;;;;18.50;99.90;;;;;;5091636;28;19920;-66
2022/05/19 08:44:59;;;;;;;;;;;18.60;99.90;;;;;;5090614;28;20024;-66
2022/05/19 08:47:26;;;;;;;;;;;18.60;99.90;;;;;;5092091;28;19928;-66
2022/05/19 08:49:57;;;;;;;;;;;18.70;99.90;;;;;;5074030;28;19924;-66
2022/05/19 08:52:25;;;;;;;;;;;18.70;99.90;;;;;;5090847;28;20362;-65
2022/05/19 08:54:52;;;;;;;;;;;18.90;99.90;;;;;;5091179;28;19924;-65
2022/05/19 08:57:18;;;;;;;;;;;19.00;99.90;;;;;;5090802;28;19924;-65
2022/05/19 09:00:04;;;;;;;;;;;19.20;99.90;;;;;;5082360;28;19920;-65
2022/05/19 09:02:42;;;;;;;;;;;19.20;99.90;;;;;;5090803;28;19928;-65
2022/05/19 09:05:14;;;;;;;;;;;19.40;99.90;;;;;;5090541;28;19919;-65
2022/05/19 09:07:58;;;;;;;;;;;19.30;99.90;;;;;;5077683;28;19921;-64
2022/05/19 09:10:29;;;;;;;;;;;19.40;99.90;;;;;;5088878;28;20386;-64
2022/05/19 09:13:03;;;;;;;;;;;19.40;99.90;;;;;;5090372;28;19928;-64
2022/05/19 09:15:29;;;;;;;;;;;19.50;99.90;;;;;;5091930;28;19942;-64
2022/05/19 09:17:55;;;;;;;;;;;19.40;99.90;;;;;;5088006;28;19928;-64
2022/05/19 09:20:22;;;;;;;;;;;19.50;99.90;;;;;;5091038;28;19924;-64
2022/05/19 09:22:47;;;;;;;;;;;19.60;99.90;;;;;;5091377;28;20382;-63
2022/05/19 09:25:16;;;;;;;;;;;19.90;99.90;;;;;;5089724;28;20016;-63
2022/05/19 09:27:43;;;;;;;;;;;20.10;99.90;;;;;;5091766;28;20282;-64
2022/05/19 09:30:28;;;;;;;;;;;20.30;99.90;;;;;;5083692;28;20368;-64
2022/05/19 09:32:56;;;;;;;;;;;20.50;98.50;;;;;;5084407;28;19924;-64
2022/05/19 09:35:43;;;;;;;;;;;20.80;99.90;;;;;;5091636;28;19927;-64
2022/05/19 09:38:16;;;;;;;;;;;20.70;98.50;;;;;;5087251;28;19931;-64
2022/05/19 09:40:44;;;;;;;;;;;20.90;98.20;;;;;;5089085;28;19920;-64
2022/05/19 09:43:22;;;;;;;;;;;21.00;98.50;;;;;;5089252;28;20360;-64
2022/05/19 09:45:49;;;;;;;;;;;21.30;97.60;;;;;;5090211;28;19935;-64
2022/05/19 09:48:19;;;;;;;;;;;21.60;97.60;;;;;;5100367;28;19967;-64
2022/05/19 09:50:46;;;;;;;;;;;21.80;95.60;;;;;;5080882;28;20383;-64
2022/05/19 09:53:13;;;;;;;;;;;22.10;98.00;;;;;;5069729;28;19920;-64
2022/05/19 09:55:39;;;;;;;;;;;22.30;95.40;;;;;;5069734;28;20271;-64
2022/05/19 09:58:07;;;;;;;;;;;22.60;93.50;;;;;;5078270;28;19940;-64
2022/05/19 10:00:43;;;;;;;;;;;22.70;93.00;;;;;;5080404;28;19927;-64
2022/05/19 10:03:11;;;;;;;;;;;23.00;94.70;;;;;;5092509;28;19928;-64
2022/05/19 10:05:39;;;;;;;;;;;23.40;92.00;;;;;;5093663;28;19924;-64
2022/05/19 10:08:14;;;;;;;;;;;23.90;88.60;;;;;;5093612;28;20007;-64
2022/05/19 10:10:46;;;;;;;;;;;24.40;92.10;;;;;;5091599;28;20521;-64
2022/05/19 10:13:12;;;;;;;;;;;24.50;92.80;;;;;;5094853;28;19924;-64
2022/05/19 10:15:46;;;;;;;;;;;24.70;91.30;;;;;;5091913;28;19927;-64
2022/05/19 10:18:20;;;;;;;;;;;24.70;87.20;;;;;;5091211;28;19943;-64
2022/05/19 10:20:50;;;;;;;;;;;24.30;87.00;;;;;;5071293;28;19940;-64
2022/05/19 10:23:30;;;;;;;;;;;24.10;81.40;;;;;;5074905;28;20118;-65
2022/05/19 10:26:08;;;;;;;;;;;23.80;84.30;;;;;;5070880;28;20760;-65
2022/05/19 10:31:38;;;;;;;;;;;23.40;84.10;;;;;;5084396;28;19935;-65
2022/05/19 10:34:22;;;;;;;;;;;23.30;84.50;;;;;;5094850;28;20465;-65
2022/05/19 10:37:06;;;;;;;;;;;23.40;86.00;;;;;;5091361;28;19970;-65
2022/05/19 10:39:32;;;;;;;;;;;23.30;84.50;;;;;;5089507;28;19959;-64
2022/05/19 10:42:13;;;;;;;;;;;23.50;84.10;;;;;;5091457;28;19972;-64
2022/05/19 10:44:57;;;;;;;;;;;23.80;83.70;;;;;;5093949;28;19935;-65
2022/05/19 10:47:29;;;;;;;;;;;24.00;80.90;;;;;;5091851;28;19920;-65
2022/05/19 10:49:54;;;;;;;;;;;24.70;80.20;;;;;;5092989;28;20022;-65
2022/05/19 10:52:26;;;;;;;;;;;24.90;77.90;;;;;;5091420;28;20014;-64
2022/05/19 10:55:05;;;;;;;;;;;24.90;75.80;;;;;;5092954;28;19924;-64
2022/05/19 10:57:36;;;;;;;;;;;24.80;75.90;;;;;;5090153;28;19927;-66
2022/05/19 11:00:05;;;;;;;;;;;24.60;77.60;;;;;;5087296;28;20383;-67
2022/05/19 11:02:31;;;;;;;;;;;24.50;75.90;;;;;;5072788;28;20364;-65
2022/05/19 11:05:02;;;;;;;;;;;24.40;75.00;;;;;;5093152;28;19927;-63
2022/05/19 11:07:38;;;;;;;;;;;24.40;74.90;;;;;;5093530;28;19920;-64
2022/05/19 11:10:22;;;;;;;;;;;24.70;76.10;;;;;;5086577;28;19924;-64
2022/05/19 11:13:03;;;;;;;;;;;24.70;70.00;;;;;;5092174;28;19920;-64
2022/05/19 11:15:36;;;;;;;;;;;25.00;69.80;;;;;;5093073;28;19992;-64
2022/05/19 11:18:12;;;;;;;;;;;25.30;68.40;;;;;;5090536;28;19920;-64
2022/05/19 11:20:53;;;;;;;;;;;25.50;67.40;;;;;;5071482;28;19948;-64
2022/05/19 11:23:25;;;;;;;;;;;25.50;68.50;;;;;;5072647;28;20026;-65
2022/05/19 11:28:44;;;;;;;;;;;25.50;67.70;;;;;;5075563;28;19927;-66
2022/05/19 11:31:15;;;;;;;;;;;25.60;67.80;;;;;;5076549;28;19931;-66
2022/05/19 11:33:44;;;;;;;;;;;25.50;62.00;;;;;;5072330;28;19921;-65
2022/05/19 11:36:18;;;;;;;;;;;25.60;66.30;;;;;;5072601;28;19924;-64
2022/05/19 11:38:48;;;;;;;;;;;25.80;63.50;;;;;;5074135;28;20409;-65
2022/05/19 11:41:17;;;;;;;;;;;26.00;61.60;;;;;;5085320;28;19931;-65
2022/05/19 11:43:58;;;;;;;;;;;26.10;62.40;;;;;;5092349;28;20356;-65
2022/05/19 11:46:37;;;;;;;;;;;26.20;63.70;;;;;;5091650;28;19920;-64
2022/05/19 11:55:19;;;;;;;;;;;26.90;58.40;;;;;;5070182;28;19929;-65
2022/05/19 11:57:47;;;;;;;;;;;26.90;57.60;;;;;;5072059;28;19925;-66
2022/05/19 12:00:19;;;;;;;;;;;27.00;56.10;;;;;;5071285;28;19921;-65
2022/05/19 12:03:04;;;;;;;;;;;26.80;57.40;;;;;;5071434;28;20023;-64
2022/05/19 12:05:33;;;;;;;;;;;26.90;57.90;;;;;;5072302;28;20027;-65
2022/05/19 12:08:05;;;;;;;;;;;26.00;57.10;;;;;;5071606;28;20432;-64
2022/05/19 12:10:37;;;;;;;;;;;26.40;58.50;;;;;;5088749;28;20291;-65
2022/05/19 12:13:03;;;;;;;;;;;26.50;58.10;;;;;;5091985;28;19924;-65
2022/05/19 12:15:37;;;;;;;;;;;26.70;57.50;;;;;;5077843;28;19920;-66
2022/05/19 12:18:10;;;;;;;;;;;26.60;54.50;;;;;;5071890;28;20261;-64
2022/05/19 12:20:38;;;;;;;;;;;26.90;55.40;;;;;;5070829;28;20280;-65
2022/05/19 12:23:15;;;;;;;;;;;26.80;54.90;;;;;;5070696;28;20003;-65
2022/05/19 12:25:43;;;;;;;;;;;26.80;54.20;;;;;;5084726;28;19971;-65
2022/05/19 12:28:17;;;;;;;;;;;26.40;52.40;;;;;;5078960;28;20019;-66
2022/05/19 12:33:47;;;;;;;;;;;26.60;57.50;;;;;;5087571;28;19920;-65
2022/05/19 12:36:17;;;;;;;;;;;26.50;57.60;;;;;;5089733;28;19924;-65
2022/05/19 12:38:43;;;;;;;;;;;26.30;57.10;;;;;;5071815;28;19924;-65
2022/05/19 12:41:38;;;;;;;;;;;26.00;52.40;;;;;;5070676;28;19920;-65
2022/05/19 12:44:22;;;;;;;;;;;25.80;56.90;;;;;;5032881;28;19921;-65
2022/05/19 12:46:56;;;;;;;;;;;25.70;57.80;;;;;;5071167;28;19946;-65
2022/05/19 12:49:26;;;;;;;;;;;25.50;56.70;;;;;;5081743;28;20768;-65
2022/05/19 12:51:59;;;;;;;;;;;25.30;57.30;;;;;;5090317;28;20042;-65
2022/05/19 12:54:26;;;;;;;;;;;25.10;57.60;;;;;;5090883;28;20007;-65
2022/05/19 12:56:56;;;;;;;;;;;25.10;59.00;;;;;;5074701;28;19920;-65
2022/05/19 12:59:23;;;;;;;;;;;25.00;60.20;;;;;;5071545;28;20073;-65
2022/05/19 13:01:50;;;;;;;;;;;24.90;60.00;;;;;;5070499;28;20245;-65
2022/05/19 13:04:15;;;;;;;;;;;24.80;59.30;;;;;;5076336;28;19924;-64
2022/05/19 13:07:01;;;;;;;;;;;24.80;62.10;;;;;;5091977;28;19920;-65
2022/05/19 13:09:28;;;;;;;;;;;24.50;63.10;;;;;;5090002;28;19963;-65
2022/05/19 13:11:54;;;;;;;;;;;23.90;61.70;;;;;;5090768;28;19928;-65
2022/05/19 13:14:26;;;;;;;;;;;23.70;64.40;;;;;;5088369;28;19921;-65
2022/05/19 13:16:53;;;;;;;;;;;23.10;68.00;;;;;;5077676;28;19943;-65
2022/05/19 13:19:26;;;;;;;;;;;22.20;74.10;;;;;;5071296;28;19928;-65
2022/05/19 13:21:53;;;;;;;;;;;21.50;81.10;;;;;;5070583;28;19920;-66
2022/05/19 13:24:19;;;;;;;;;;;20.80;88.20;;;;;;5075209;28;19920;-65
2022/05/19 13:26:46;;;;;;;;;;;20.40;90.60;;;;;;5091210;28;19924;-66
2022/05/19 13:32:02;;;;;;;;;;;19.70;98.30;;;;;;5077665;28;19943;-65
2022/05/19 13:34:48;;;;;;;;;;;19.30;99.90;;;;;;5088450;28;19920;-65
2022/05/19 13:37:14;;;;;;;;;;;19.00;99.90;;;;;;5091724;28;20692;-66
2022/05/19 13:39:39;;;;;;;;;;;19.40;99.90;;;;;;5094819;28;19920;-66
2022/05/19 13:42:09;;;;;;;;;;;18.80;99.90;;;;;;5094353;28;19993;-67
2022/05/19 13:44:37;;;;;;;;;;;18.70;99.90;;;;;;5080569;28;19994;-64
2022/05/19 13:47:17;;;;;;;;;;;19.00;99.90;;;;;;5057000;28;20019;-64
2022/05/19 13:49:47;;;;;;;;;;;18.60;99.90;;;;;;5083087;28;19932;-65
2022/05/19 13:52:13;;;;;;;;;;;18.60;99.90;;;;;;5089074;28;19946;-64
2022/05/19 13:54:40;;;;;;;;;;;17.90;99.90;;;;;;5078538;28;19928;-65
2022/05/19 13:57:08;;;;;;;;;;;18.50;99.90;;;;;;5089573;28;19920;-64
2022/05/19 13:59:34;;;;;;;;;;;17.70;99.90;;;;;;5082262;28;19927;-65
2022/05/19 14:02:06;;;;;;;;;;;18.10;99.90;;;;;;5084858;28;20345;-63
2022/05/19 14:04:33;;;;;;;;;;;17.80;99.90;;;;;;5090636;28;19965;-65
2022/05/19 14:06:58;;;;;;;;;;;18.00;99.90;;;;;;5106524;28;19920;-65
2022/05/19 14:10:03;;;;;;;;;;;17.90;99.90;;;;;;5090928;28;19924;-65
2022/05/19 14:12:34;;;;;;;;;;;17.30;99.90;;;;;;5011032;28;19964;-65
2022/05/19 14:15:01;;;;;;;;;;;17.70;99.90;;;;;;5008390;28;20028;-66
2022/05/19 14:17:28;;;;;;;;;;;18.00;99.90;;;;;;5045320;28;19934;-66
2022/05/19 14:19:55;;;;;;;;;;;17.40;99.90;;;;;;5084561;28;20011;-65
2022/05/19 14:22:21;;;;;;;;;;;17.20;99.90;;;;;;5087604;28;20336;-65
2022/05/19 14:24:47;;;;;;;;;;;17.60;99.90;;;;;;5080618;28;19928;-65
2022/05/19 14:27:14;;;;;;;;;;;17.60;99.90;;;;;;5089249;28;20006;-65
2022/05/19 14:29:42;;;;;;;;;;;17.20;99.90;;;;;;5077157;28;20027;-65
2022/05/19 14:32:19;;;;;;;;;;;17.10;99.90;;;;;;5090776;28;19924;-65
2022/05/19 14:34:45;;;;;;;;;;;17.40;99.90;;;;;;5086441;28;20449;-63
2022/05/19 14:37:16;;;;;;;;;;;17.30;99.90;;;;;;5090349;28;19920;-65
2022/05/19 14:39:41;;;;;;;;;;;16.80;99.90;;;;;;5092801;28;20667;-66
2022/05/19 14:44:56;;;;;;;;;;;16.80;99.90;;;;;;5078199;28;19928;-66
2022/05/19 14:47:23;;;;;;;;;;;16.80;99.90;;;;;;5075778;28;20378;-66
2022/05/19 14:49:50;;;;;;;;;;;17.00;99.90;;;;;;5075353;28;19986;-66